LVJAM SABE-SAEZ
Flight info
| Callsign | LVJAM |
|---|---|
| Flight time | 0h 24m |
| Altitude | FL050 |
| Route | UPOMA GESTA |
| Aircraft | BE58/L-S/N |
Departure
| Time | 2026-05-04 18:30 |
|---|---|
| Airport | Aeroparque Jorge Newbery (SABE) |
Arrival
| Time | 2026-05-04 18:54 |
|---|---|
| Airport | Ezeiza International Airport - Ministro Pistarini (SAEZ) |
| Time | Latitude | Longitude | Altitude | Speed | Heading |
|---|---|---|---|---|---|
| 2026-05-04 18:12 | -34.56464 | -58.41003 | 21 ft | 0 kts | 134° |
| 2026-05-04 18:25 | -34.56465 | -58.41002 | 21 ft | 1 kts | 134° |
| 2026-05-04 18:26 | -34.56467 | -58.40999 | 21 ft | 0 kts | 132° |
| 2026-05-04 18:26 | -34.56497 | -58.40931 | 21 ft | 8 kts | 114° |
| 2026-05-04 18:27 | -34.56505 | -58.40908 | 21 ft | 1 kts | 110° |
| 2026-05-04 18:27 | -34.56510 | -58.40868 | 21 ft | 8 kts | 79° |
| 2026-05-04 18:27 | -34.56497 | -58.40822 | 21 ft | 3 kts | 69° |
| 2026-05-04 18:27 | -34.56496 | -58.40820 | 21 ft | 1 kts | 68° |
| 2026-05-04 18:28 | -34.56494 | -58.40814 | 21 ft | 0 kts | 64° |
| 2026-05-04 18:28 | -34.56491 | -58.40808 | 21 ft | 6 kts | 63° |
| 2026-05-04 18:28 | -34.56447 | -58.40709 | 21 ft | 16 kts | 58° |
| 2026-05-04 18:29 | -34.56339 | -58.40818 | 21 ft | 50 kts | 303° |
| 2026-05-04 18:29 | -34.56030 | -58.41379 | 22 ft | 107 kts | 303° |
| 2026-05-04 18:29 | -34.55560 | -58.42246 | 95 ft | 133 kts | 304° |
| 2026-05-04 18:29 | -34.55069 | -58.43213 | 293 ft | 137 kts | 302° |
| 2026-05-04 18:30 | -34.53885 | -58.45087 | 729 ft | 148 kts | 316° |
| 2026-05-04 18:30 | -34.53140 | -58.45946 | 1057 ft | 147 kts | 324° |
| 2026-05-04 18:30 | -34.52179 | -58.46283 | 1374 ft | 145 kts | 352° |
| 2026-05-04 18:31 | -34.51180 | -58.46406 | 1671 ft | 144 kts | 352° |
| 2026-05-04 18:31 | -34.50184 | -58.46537 | 2036 ft | 149 kts | 353° |
| 2026-05-04 18:31 | -34.49112 | -58.46725 | 2365 ft | 159 kts | 353° |
| 2026-05-04 18:31 | -34.48128 | -58.46924 | 2507 ft | 163 kts | 346° |
| 2026-05-04 18:32 | -34.47991 | -58.46940 | 2536 ft | 163 kts | 347° |
| 2026-05-04 18:32 | -34.46891 | -58.46987 | 2835 ft | 154 kts | 351° |
| 2026-05-04 18:32 | -34.45843 | -58.46940 | 3110 ft | 152 kts | 2° |
| 2026-05-04 18:33 | -34.44959 | -58.46225 | 3351 ft | 160 kts | 54° |
| 2026-05-04 18:33 | -34.44727 | -58.44967 | 3635 ft | 152 kts | 104° |
| 2026-05-04 18:33 | -34.45240 | -58.43972 | 3924 ft | 134 kts | 148° |
| 2026-05-04 18:33 | -34.45985 | -58.43339 | 4195 ft | 129 kts | 155° |
| 2026-05-04 18:34 | -34.46743 | -58.42802 | 4472 ft | 124 kts | 159° |
| 2026-05-04 18:34 | -34.47501 | -58.42332 | 4704 ft | 123 kts | 155° |
| 2026-05-04 18:34 | -34.48307 | -58.41962 | 4926 ft | 123 kts | 166° |
| 2026-05-04 18:34 | -34.49116 | -58.41454 | 4976 ft | 140 kts | 160° |
| 2026-05-04 18:35 | -34.50023 | -58.40866 | 4949 ft | 156 kts | 160° |
| 2026-05-04 18:35 | -34.51021 | -58.40234 | 4930 ft | 167 kts | 160° |
| 2026-05-04 18:35 | -34.52072 | -58.39578 | 4920 ft | 173 kts | 160° |
| 2026-05-04 18:35 | -34.53159 | -58.38909 | 4915 ft | 178 kts | 160° |
| 2026-05-04 18:36 | -34.54272 | -58.38230 | 4914 ft | 181 kts | 160° |
| 2026-05-04 18:36 | -34.55404 | -58.37537 | 4912 ft | 183 kts | 160° |
| 2026-05-04 18:36 | -34.56541 | -58.36840 | 4910 ft | 185 kts | 160° |
| 2026-05-04 18:36 | -34.57695 | -58.36136 | 4909 ft | 186 kts | 160° |
| 2026-05-04 18:37 | -34.58857 | -58.35462 | 4906 ft | 187 kts | 161° |
| 2026-05-04 18:37 | -34.60044 | -58.34818 | 4909 ft | 188 kts | 161° |
| 2026-05-04 18:37 | -34.61243 | -58.34178 | 4910 ft | 189 kts | 162° |
| 2026-05-04 18:37 | -34.62449 | -58.33536 | 4909 ft | 190 kts | 162° |
| 2026-05-04 18:38 | -34.63666 | -58.32889 | 4909 ft | 191 kts | 162° |
| 2026-05-04 18:38 | -34.64875 | -58.32241 | 4910 ft | 191 kts | 162° |
| 2026-05-04 18:38 | -34.66099 | -58.31584 | 4910 ft | 192 kts | 162° |
| 2026-05-04 18:38 | -34.67310 | -58.30933 | 4909 ft | 192 kts | 162° |
| 2026-05-04 18:39 | -34.68526 | -58.30278 | 4909 ft | 192 kts | 162° |
| 2026-05-04 18:39 | -34.69744 | -58.29621 | 4909 ft | 192 kts | 162° |
| 2026-05-04 18:39 | -34.70963 | -58.28963 | 4909 ft | 192 kts | 162° |
| 2026-05-04 18:39 | -34.72177 | -58.28307 | 4909 ft | 192 kts | 162° |
| 2026-05-04 18:40 | -34.73391 | -58.27650 | 4908 ft | 192 kts | 162° |
| 2026-05-04 18:40 | -34.74205 | -58.27210 | 4908 ft | 192 kts | 162° |
| 2026-05-04 18:40 | -34.75211 | -58.26667 | 4909 ft | 192 kts | 162° |
| 2026-05-04 18:40 | -34.76437 | -58.26007 | 4910 ft | 195 kts | 162° |
| 2026-05-04 18:41 | -34.77681 | -58.25341 | 4910 ft | 196 kts | 162° |
| 2026-05-04 18:41 | -34.78933 | -58.24675 | 4909 ft | 197 kts | 162° |
| 2026-05-04 18:41 | -34.80188 | -58.24011 | 4911 ft | 198 kts | 162° |
| 2026-05-04 18:41 | -34.81452 | -58.23343 | 4908 ft | 199 kts | 162° |
| 2026-05-04 18:42 | -34.82722 | -58.22674 | 4908 ft | 200 kts | 162° |
| 2026-05-04 18:42 | -34.84004 | -58.22039 | 4909 ft | 199 kts | 165° |
| 2026-05-04 18:42 | -34.85322 | -58.21543 | 4902 ft | 196 kts | 177° |
| 2026-05-04 18:42 | -34.86616 | -58.21693 | 4910 ft | 183 kts | 208° |
| 2026-05-04 18:43 | -34.87727 | -58.22394 | 4918 ft | 179 kts | 219° |
| 2026-05-04 18:43 | -34.88785 | -58.23186 | 4911 ft | 179 kts | 220° |
| 2026-05-04 18:43 | -34.89834 | -58.23993 | 4909 ft | 180 kts | 221° |
| 2026-05-04 18:43 | -34.90893 | -58.24812 | 4909 ft | 180 kts | 220° |
| 2026-05-04 18:44 | -34.91947 | -58.25628 | 4881 ft | 182 kts | 221° |
| 2026-05-04 18:44 | -34.92670 | -58.26200 | 4757 ft | 191 kts | 220° |
| 2026-05-04 18:44 | -34.94182 | -58.27460 | 4560 ft | 203 kts | 221° |
| 2026-05-04 18:44 | -34.95358 | -58.28456 | 4404 ft | 208 kts | 221° |
| 2026-05-04 18:45 | -34.96537 | -58.29484 | 4245 ft | 210 kts | 224° |
| 2026-05-04 18:45 | -34.97623 | -58.30665 | 4101 ft | 208 kts | 231° |
| 2026-05-04 18:45 | -34.98555 | -58.31986 | 3967 ft | 203 kts | 242° |
| 2026-05-04 18:45 | -34.99283 | -58.33457 | 3756 ft | 204 kts | 247° |
| 2026-05-04 18:46 | -34.99946 | -58.34971 | 3607 ft | 202 kts | 250° |
| 2026-05-04 18:46 | -35.00548 | -58.36498 | 3522 ft | 198 kts | 251° |
| 2026-05-04 18:46 | -35.01055 | -58.37830 | 3493 ft | 178 kts | 253° |
| 2026-05-04 18:46 | -35.01456 | -58.39132 | 3470 ft | 149 kts | 266° |
| 2026-05-04 18:47 | -35.01360 | -58.40218 | 3479 ft | 116 kts | 299° |
| 2026-05-04 18:47 | -35.01033 | -58.41008 | 3498 ft | 93 kts | 307° |
| 2026-05-04 18:47 | -35.00747 | -58.41636 | 3450 ft | 76 kts | 311° |
| 2026-05-04 18:47 | -35.00437 | -58.42115 | 3471 ft | 76 kts | 317° |
| 2026-05-04 18:48 | -35.00064 | -58.42644 | 3552 ft | 90 kts | 317° |
| 2026-05-04 18:48 | -34.99623 | -58.43253 | 3540 ft | 102 kts | 317° |
| 2026-05-04 18:48 | -34.99121 | -58.43932 | 3448 ft | 114 kts | 317° |
| 2026-05-04 18:48 | -34.98560 | -58.44671 | 3308 ft | 123 kts | 318° |
| 2026-05-04 18:49 | -34.97947 | -58.45424 | 3156 ft | 127 kts | 319° |
| 2026-05-04 18:49 | -34.97375 | -58.46222 | 3116 ft | 124 kts | 314° |
| 2026-05-04 18:49 | -34.96818 | -58.47015 | 3022 ft | 123 kts | 318° |
| 2026-05-04 18:49 | -34.96181 | -58.47717 | 2863 ft | 124 kts | 324° |
| 2026-05-04 18:50 | -34.95472 | -58.48323 | 2671 ft | 126 kts | 330° |
| 2026-05-04 18:50 | -34.94692 | -58.48796 | 2461 ft | 124 kts | 338° |
| 2026-05-04 18:50 | -34.93876 | -58.49119 | 2245 ft | 126 kts | 344° |
| 2026-05-04 18:50 | -34.93001 | -58.49352 | 2039 ft | 130 kts | 347° |
| 2026-05-04 18:51 | -34.92109 | -58.49561 | 1864 ft | 131 kts | 347° |
| 2026-05-04 18:51 | -34.91217 | -58.49784 | 1696 ft | 131 kts | 349° |
| 2026-05-04 18:51 | -34.90351 | -58.50088 | 1527 ft | 129 kts | 344° |
| 2026-05-04 18:51 | -34.89498 | -58.50387 | 1354 ft | 128 kts | 345° |
| 2026-05-04 18:52 | -34.88642 | -58.50675 | 1183 ft | 127 kts | 345° |
| 2026-05-04 18:52 | -34.87798 | -58.50957 | 1016 ft | 126 kts | 344° |
| 2026-05-04 18:52 | -34.86953 | -58.51247 | 853 ft | 127 kts | 343° |
| 2026-05-04 18:52 | -34.86100 | -58.51547 | 692 ft | 129 kts | 343° |
| 2026-05-04 18:53 | -34.85240 | -58.51855 | 526 ft | 128 kts | 343° |
| 2026-05-04 18:53 | -34.84396 | -58.52155 | 349 ft | 124 kts | 343° |
| 2026-05-04 18:53 | -34.83600 | -58.52435 | 181 ft | 114 kts | 343° |
| 2026-05-04 18:53 | -34.82911 | -58.52675 | 70 ft | 89 kts | 342° |
| 2026-05-04 18:54 | -34.82407 | -58.52855 | 70 ft | 65 kts | 343° |
| 2026-05-04 18:54 | -34.82033 | -58.52983 | 70 ft | 47 kts | 343° |
| 2026-05-04 18:54 | -34.81761 | -58.53084 | 69 ft | 36 kts | 346° |
| 2026-05-04 18:54 | -34.81557 | -58.53175 | 69 ft | 28 kts | 303° |
| 2026-05-04 18:55 | -34.81457 | -58.53366 | 69 ft | 27 kts | 299° |
| 2026-05-04 18:55 | -34.81330 | -58.53586 | 69 ft | 6 kts | 1° |
| 2026-05-04 18:55 | -34.81231 | -58.53584 | 69 ft | 21 kts | 0° |
| 2026-05-04 18:56 | -34.81118 | -58.53575 | 69 ft | 18 kts | 14° |
| 2026-05-04 18:56 | -34.80964 | -58.53604 | 69 ft | 28 kts | 345° |
| 2026-05-04 18:56 | -34.80753 | -58.53678 | 69 ft | 35 kts | 343° |
| 2026-05-04 18:56 | -34.80504 | -58.53741 | 69 ft | 38 kts | 4° |
| 2026-05-04 18:57 | -34.80266 | -58.53588 | 69 ft | 43 kts | 44° |
| 2026-05-04 18:57 | -34.80044 | -58.53307 | 69 ft | 47 kts | 45° |
| 2026-05-04 18:57 | -34.79847 | -58.53066 | 69 ft | 33 kts | 45° |
| 2026-05-04 18:57 | -34.79721 | -58.52901 | 69 ft | 18 kts | 54° |
| 2026-05-04 18:58 | -34.79746 | -58.52826 | 69 ft | 16 kts | 152° |
| 2026-05-04 18:58 | -34.79810 | -58.52836 | 69 ft | 10 kts | 260° |
| 2026-05-04 18:58 | -34.79780 | -58.52876 | 69 ft | 2 kts | 332° |
| 2026-05-04 18:58 | -34.79776 | -58.52878 | 69 ft | 0 kts | 333° |
| 2026-05-04 19:08 | -34.79775 | -58.52878 | 69 ft | 0 kts | 333° |
| 2026-05-04 19:15 | -34.79775 | -58.52879 | 69 ft | 0 kts | 333° |